Time;durP1;ratioP1;P1;durP2;ratioP2;P2;SDS_P1;SDS_P2;PMS_P1;PMS_P2;Temp;Humidity;BMP_temperature;BMP_pressure;BME280_temperature;BME280_humidity;BME280_pressure;Samples;Min_cycle;Max_cycle;Signal;HPM_P1;HPM_P2
2022/04/10 00:01:01;;;;;;;5.50;1.83;;;6.90;90.40;;;;;;5014162;28;20088;-68
2022/04/10 00:03:27;;;;;;;5.65;2.03;;;6.80;90.40;;;;;;5012808;28;20073;-68
2022/04/10 00:05:52;;;;;;;4.22;1.80;;;6.80;90.50;;;;;;5030726;28;20128;-69
2022/04/10 00:08:18;;;;;;;6.90;3.00;;;6.80;90.50;;;;;;5019525;28;20053;-69
2022/04/10 00:10:44;;;;;;;8.07;2.28;;;6.80;90.50;;;;;;5015514;28;20030;-68
2022/04/10 00:13:10;;;;;;;7.28;2.72;;;6.70;90.50;;;;;;5016241;28;20385;-69
2022/04/10 00:15:35;;;;;;;5.60;2.13;;;6.70;90.60;;;;;;5016048;28;20068;-69
2022/04/10 00:18:01;;;;;;;4.75;2.05;;;6.70;90.70;;;;;;5030818;28;20041;-68
2022/04/10 00:20:27;;;;;;;4.40;1.92;;;6.70;90.70;;;;;;5019907;28;20476;-68
2022/04/10 00:22:52;;;;;;;6.60;2.60;;;6.70;90.70;;;;;;5022722;28;20026;-69
2022/04/10 00:25:19;;;;;;;4.85;2.13;;;6.60;90.80;;;;;;5022198;28;20392;-69
2022/04/10 00:27:45;;;;;;;8.90;2.47;;;6.60;91.00;;;;;;5013089;28;20064;-69
2022/04/10 00:30:13;;;;;;;9.23;2.55;;;6.60;91.00;;;;;;5016132;28;20053;-69
2022/04/10 00:32:39;;;;;;;8.55;4.05;;;6.60;91.10;;;;;;5020806;28;20026;-69
2022/04/10 00:35:06;;;;;;;5.25;2.45;;;6.60;91.10;;;;;;5031041;28;20053;-69
2022/04/10 00:37:33;;;;;;;5.35;2.67;;;6.60;91.20;;;;;;5031347;28;20026;-69
2022/04/10 00:39:58;;;;;;;5.20;2.05;;;6.60;91.10;;;;;;5015790;28;20033;-69
2022/04/10 00:42:34;;;;;;;10.93;3.20;;;6.60;91.20;;;;;;5015410;28;20455;-69
2022/04/10 00:45:00;;;;;;;4.20;2.30;;;6.60;91.30;;;;;;5012847;28;20025;-69
2022/04/10 00:47:26;;;;;;;5.50;2.65;;;6.50;91.30;;;;;;5015820;28;20481;-69
2022/04/10 00:49:52;;;;;;;6.10;3.78;;;6.60;91.30;;;;;;5013384;28;20041;-69
2022/04/10 00:52:18;;;;;;;4.45;2.28;;;6.60;91.40;;;;;;5018101;28;20596;-69
2022/04/10 00:54:44;;;;;;;5.07;2.72;;;6.60;91.40;;;;;;5025285;28;20025;-69
2022/04/10 00:57:10;;;;;;;5.97;3.00;;;6.60;91.40;;;;;;5021595;28;20066;-69
2022/04/10 00:59:36;;;;;;;9.07;2.67;;;6.70;91.40;;;;;;5031541;28;20021;-69
2022/04/10 01:02:02;;;;;;;4.72;2.60;;;6.70;91.40;;;;;;5028606;28;20408;-69
2022/04/10 01:04:28;;;;;;;4.53;2.70;;;6.70;91.40;;;;;;5029182;28;20044;-69
2022/04/10 01:06:56;;;;;;;5.22;2.95;;;6.70;91.40;;;;;;5030526;28;20076;-69
2022/04/10 01:09:23;;;;;;;6.32;3.17;;;6.70;91.40;;;;;;5030513;28;20084;-69
2022/04/10 01:11:49;;;;;;;8.23;4.50;;;6.70;91.40;;;;;;5013523;28;20033;-69
2022/04/10 01:14:14;;;;;;;4.45;2.78;;;6.70;91.40;;;;;;5012810;28;20045;-68
2022/04/10 01:16:41;;;;;;;6.57;2.83;;;6.80;91.50;;;;;;5031437;28;20031;-68
2022/04/10 01:19:08;;;;;;;4.70;2.90;;;6.70;91.40;;;;;;5032195;28;20033;-68
2022/04/10 01:21:39;;;;;;;5.07;2.60;;;6.70;91.40;;;;;;5018668;28;20036;-68
2022/04/10 01:24:06;;;;;;;4.85;3.08;;;6.70;91.40;;;;;;5013297;28;20029;-69
2022/04/10 01:26:31;;;;;;;4.65;2.70;;;6.70;91.40;;;;;;5017384;28;20041;-69
2022/04/10 01:28:58;;;;;;;7.43;3.05;;;6.70;91.50;;;;;;5019332;28;20026;-69
2022/04/10 01:31:24;;;;;;;6.00;2.88;;;6.60;91.50;;;;;;5020288;28;20029;-69
2022/04/10 01:33:50;;;;;;;5.75;2.80;;;6.70;91.60;;;;;;5021519;28;20029;-68
2022/04/10 01:36:16;;;;;;;7.00;3.28;;;6.60;91.60;;;;;;5012679;28;20393;-69
2022/04/10 01:38:43;;;;;;;4.85;3.10;;;6.70;91.70;;;;;;5023564;28;20466;-69
2022/04/10 01:41:15;;;;;;;5.35;3.65;;;6.60;91.70;;;;;;5012085;28;20052;-69
2022/04/10 01:43:48;;;;;;;5.43;2.95;;;6.60;91.80;;;;;;5022643;28;20022;-69
2022/04/10 01:46:14;;;;;;;6.15;2.88;;;6.50;91.90;;;;;;5019475;28;20034;-69
2022/04/10 01:48:40;;;;;;;6.85;3.80;;;6.50;91.90;;;;;;5016210;28;20128;-69
2022/04/10 01:51:06;;;;;;;6.85;3.22;;;6.50;91.90;;;;;;5020767;28;20529;-69
2022/04/10 01:53:32;;;;;;;5.63;3.50;;;6.50;91.80;;;;;;5013022;28;20289;-69
2022/04/10 01:55:58;;;;;;;5.38;2.70;;;6.50;91.80;;;;;;5012584;28;20440;-69
2022/04/10 01:58:23;;;;;;;7.63;3.40;;;6.50;91.80;;;;;;5016469;28;20029;-67
2022/04/10 02:00:49;;;;;;;5.90;3.08;;;6.50;91.80;;;;;;5011809;28;20477;-68
2022/04/10 02:03:14;;;;;;;5.05;2.92;;;6.50;92.00;;;;;;5024731;28;20049;-68
2022/04/10 02:06:01;;;;;;;9.88;4.40;;;6.50;91.80;;;;;;5031303;28;20124;-68
2022/04/10 02:08:47;;;;;;;5.53;3.05;;;6.50;92.00;;;;;;5020564;28;20109;-68
2022/04/10 02:11:33;;;;;;;6.85;2.85;;;6.40;91.80;;;;;;5011773;28;20448;-68
2022/04/10 02:14:19;;;;;;;7.88;3.00;;;6.40;91.80;;;;;;5012329;28;20518;-68
2022/04/10 02:17:05;;;;;;;6.70;3.33;;;6.40;91.90;;;;;;5030969;28;20021;-68
2022/04/10 02:19:51;;;;;;;5.53;3.17;;;6.30;91.90;;;;;;5011522;28;20080;-68
2022/04/10 02:22:16;;;;;;;7.65;2.95;;;6.30;91.90;;;;;;5026015;28;20618;-68
2022/04/10 02:24:42;;;;;;;7.60;2.83;;;6.20;91.90;;;;;;5029283;28;20040;-68
2022/04/10 02:27:07;;;;;;;7.70;2.90;;;6.10;92.10;;;;;;5018118;28;20093;-68
2022/04/10 02:29:32;;;;;;;6.03;3.17;;;6.10;92.20;;;;;;5015964;28;20033;-68
2022/04/10 02:31:58;;;;;;;6.22;3.22;;;6.10;92.30;;;;;;5031355;28;20501;-68
2022/04/10 02:34:24;;;;;;;4.72;3.00;;;6.00;92.20;;;;;;5028589;28;20120;-67
2022/04/10 02:36:49;;;;;;;7.13;2.83;;;6.00;92.40;;;;;;5031209;28;20492;-68
2022/04/10 02:39:15;;;;;;;4.95;2.97;;;6.00;92.30;;;;;;5028205;28;20018;-67
2022/04/10 02:41:41;;;;;;;9.57;3.65;;;6.00;92.50;;;;;;5028546;28;20025;-67
2022/04/10 02:44:06;;;;;;;7.32;2.95;;;6.00;92.40;;;;;;5017312;28;20045;-67
2022/04/10 02:46:31;;;;;;;7.68;3.22;;;6.00;92.40;;;;;;5011568;28;20038;-68
2022/04/10 02:48:57;;;;;;;6.57;3.65;;;6.10;92.50;;;;;;5009506;28;20018;-68
2022/04/10 02:51:22;;;;;;;7.13;3.90;;;6.00;92.60;;;;;;5020830;28;20119;-68
2022/04/10 02:53:48;;;;;;;7.40;3.63;;;6.00;92.50;;;;;;5030394;28;20025;-69
2022/04/10 02:56:13;;;;;;;9.02;3.70;;;6.00;92.60;;;;;;5015772;28;20037;-68
2022/04/10 02:58:39;;;;;;;7.00;4.20;;;6.00;92.60;;;;;;5011528;28;20460;-67
2022/04/10 03:01:04;;;;;;;7.63;3.13;;;6.00;92.50;;;;;;5026104;28;20041;-68
2022/04/10 03:03:30;;;;;;;8.02;3.38;;;6.00;92.60;;;;;;5027516;28;20199;-68
2022/04/10 03:05:55;;;;;;;7.00;3.30;;;6.10;92.70;;;;;;5013826;28;20065;-68
2022/04/10 03:08:21;;;;;;;8.50;3.30;;;6.00;92.60;;;;;;5011212;28;20065;-68
2022/04/10 03:10:47;;;;;;;4.10;2.67;;;6.00;92.70;;;;;;5016847;28;20049;-68
2022/04/10 03:13:14;;;;;;;7.22;3.88;;;6.10;92.70;;;;;;5014820;28;20124;-68
2022/04/10 03:15:42;;;;;;;12.45;3.25;;;6.10;92.90;;;;;;5019794;28;20049;-68
2022/04/10 03:18:07;;;;;;;7.05;3.58;;;6.10;92.80;;;;;;5029061;28;20049;-68
2022/04/10 03:20:33;;;;;;;7.15;3.42;;;6.00;92.90;;;;;;5015375;28;20435;-69
2022/04/10 03:22:58;;;;;;;9.10;3.53;;;6.00;92.90;;;;;;5014113;28;20022;-69
2022/04/10 03:25:24;;;;;;;7.20;3.65;;;6.00;92.90;;;;;;5028246;28;20514;-69
2022/04/10 03:27:49;;;;;;;8.43;4.03;;;6.00;92.90;;;;;;5015656;28;20033;-68
2022/04/10 03:30:15;;;;;;;6.93;3.83;;;6.00;92.90;;;;;;5032697;28;20095;-68
2022/04/10 03:32:41;;;;;;;6.40;2.72;;;6.00;92.90;;;;;;5032450;28;20036;-68
2022/04/10 03:35:10;;;;;;;10.05;3.58;;;6.00;93.00;;;;;;5014933;28;20385;-68
2022/04/10 03:37:35;;;;;;;8.13;3.55;;;6.00;92.90;;;;;;5023149;28;20017;-68
2022/04/10 03:40:03;;;;;;;6.40;3.47;;;6.00;92.90;;;;;;5033348;28;20523;-68
2022/04/10 03:42:37;;;;;;;11.65;3.72;;;5.90;93.10;;;;;;5032524;28;20036;-68
2022/04/10 03:45:02;;;;;;;9.48;3.45;;;6.00;93.00;;;;;;5034277;28;20036;-68
2022/04/10 03:47:28;;;;;;;8.57;3.20;;;6.00;93.00;;;;;;5022209;28;20037;-68
2022/04/10 03:49:53;;;;;;;6.85;2.95;;;6.00;93.00;;;;;;5014783;28;20026;-68
2022/04/10 03:52:19;;;;;;;6.72;3.10;;;6.00;93.00;;;;;;5014427;28;20030;-68
2022/04/10 03:54:44;;;;;;;13.85;4.00;;;6.10;92.90;;;;;;5015199;28;20105;-68
2022/04/10 03:57:10;;;;;;;8.55;3.10;;;6.10;92.90;;;;;;5013906;28;20033;-68
2022/04/10 03:59:35;;;;;;;6.70;3.05;;;6.10;92.90;;;;;;5015033;28;20116;-68
2022/04/10 04:02:01;;;;;;;6.00;3.03;;;6.20;92.90;;;;;;5013120;28;20374;-68
2022/04/10 04:04:26;;;;;;;6.72;3.00;;;6.10;92.90;;;;;;5027737;28;20091;-68
2022/04/10 04:06:52;;;;;;;5.97;2.95;;;6.20;92.90;;;;;;5022148;28;20064;-68
2022/04/10 04:09:17;;;;;;;9.20;2.65;;;6.10;92.90;;;;;;5014929;28;20029;-68
2022/04/10 04:11:43;;;;;;;7.55;3.00;;;6.10;92.90;;;;;;5033723;28;20105;-68
2022/04/10 04:14:08;;;;;;;5.95;2.90;;;6.10;92.90;;;;;;5031841;28;20022;-68
2022/04/10 04:16:34;;;;;;;9.48;3.03;;;6.10;92.90;;;;;;5034192;28;20393;-68
2022/04/10 04:18:59;;;;;;;15.63;3.97;;;6.10;92.80;;;;;;5030378;28;20080;-68
2022/04/10 04:21:25;;;;;;;5.78;3.53;;;6.20;92.80;;;;;;5015332;28;20018;-69
2022/04/10 04:23:51;;;;;;;7.90;3.25;;;6.20;92.90;;;;;;5022543;28;20030;-68
2022/04/10 04:26:16;;;;;;;7.85;3.10;;;6.10;92.90;;;;;;5020991;28;20092;-69
2022/04/10 04:28:42;;;;;;;7.72;3.72;;;6.10;92.90;;;;;;5022256;28;20037;-68
2022/04/10 04:31:07;;;;;;;6.93;3.05;;;6.10;92.90;;;;;;5018904;28;20036;-68
2022/04/10 04:33:33;;;;;;;6.97;3.08;;;6.00;92.80;;;;;;5013370;28;20117;-68
2022/04/10 04:35:58;;;;;;;9.88;3.53;;;6.10;92.90;;;;;;5013132;28;20034;-68
2022/04/10 04:38:24;;;;;;;4.95;2.75;;;6.10;92.90;;;;;;5012810;28;20025;-68
2022/04/10 04:40:49;;;;;;;6.57;3.33;;;6.10;92.80;;;;;;5012419;28;20109;-68
2022/04/10 04:43:15;;;;;;;8.02;2.88;;;6.10;92.80;;;;;;5014322;28;20026;-68
2022/04/10 04:45:40;;;;;;;10.70;3.40;;;6.10;92.80;;;;;;5013405;28;20061;-69
2022/04/10 04:48:06;;;;;;;7.07;3.00;;;6.10;92.80;;;;;;5016776;28;20025;-68
2022/04/10 04:50:31;;;;;;;8.43;3.10;;;6.10;92.90;;;;;;5017800;28;20444;-68
2022/04/10 04:52:57;;;;;;;8.07;3.38;;;6.10;92.80;;;;;;5017357;28;20547;-68
2022/04/10 04:55:22;;;;;;;9.85;2.97;;;6.20;92.80;;;;;;5022240;28;20137;-68
2022/04/10 04:57:48;;;;;;;7.05;2.83;;;6.20;92.70;;;;;;5015974;28;20034;-67
2022/04/10 05:00:14;;;;;;;7.22;3.05;;;6.20;92.70;;;;;;5015483;28;20034;-68
2022/04/10 05:02:39;;;;;;;8.07;2.60;;;6.20;92.70;;;;;;5011951;28;20486;-68
2022/04/10 05:05:05;;;;;;;10.70;2.90;;;6.20;92.60;;;;;;5016014;28;20026;-68
2022/04/10 05:07:31;;;;;;;11.63;2.75;;;6.20;92.60;;;;;;5011602;28;20041;-68
2022/04/10 05:09:56;;;;;;;11.10;2.95;;;6.30;92.60;;;;;;5017889;28;20049;-68
2022/04/10 05:12:23;;;;;;;10.50;3.30;;;6.40;92.60;;;;;;5027953;28;20503;-68
2022/04/10 05:14:49;;;;;;;8.07;2.67;;;6.40;92.60;;;;;;5029445;28;20056;-68
2022/04/10 05:17:14;;;;;;;12.82;3.22;;;6.50;92.50;;;;;;5020817;28;20676;-69
2022/04/10 05:19:40;;;;;;;19.67;4.45;;;6.50;92.40;;;;;;5016969;28;20040;-68
2022/04/10 05:22:05;;;;;;;11.02;2.88;;;6.50;92.40;;;;;;5018212;28;20830;-69
2022/04/10 05:24:31;;;;;;;7.38;2.88;;;6.50;92.40;;;;;;5018290;28;20097;-68
2022/04/10 05:26:57;;;;;;;8.18;2.80;;;6.50;92.40;;;;;;5013422;28;20046;-68
2022/04/10 05:29:22;;;;;;;8.90;2.88;;;6.60;92.30;;;;;;5012784;28;20076;-67
2022/04/10 05:31:48;;;;;;;6.55;2.50;;;6.60;92.30;;;;;;5012755;28;20034;-67
2022/04/10 05:34:13;;;;;;;9.23;2.63;;;6.60;92.20;;;;;;5023473;28;20056;-67
2022/04/10 05:36:39;;;;;;;7.53;2.28;;;6.70;92.20;;;;;;5012747;28;20390;-67
2022/04/10 05:39:04;;;;;;;12.10;3.00;;;6.60;92.10;;;;;;5012180;28;20109;-68
2022/04/10 05:41:30;;;;;;;14.02;2.85;;;6.60;92.30;;;;;;5013957;28;20107;-68
2022/04/10 05:43:55;;;;;;;11.48;4.45;;;6.60;92.30;;;;;;5010844;28;20026;-68
2022/04/10 05:46:20;;;;;;;10.50;2.97;;;6.70;92.30;;;;;;5029495;28;20044;-68
2022/04/10 05:48:46;;;;;;;8.90;3.05;;;6.70;92.40;;;;;;5025198;28;20021;-68
2022/04/10 05:51:11;;;;;;;9.43;2.70;;;6.80;92.40;;;;;;5011294;28;20489;-68
2022/04/10 05:53:37;;;;;;;8.07;3.22;;;6.80;92.30;;;;;;5011434;28;20441;-67
2022/04/10 05:56:03;;;;;;;7.05;2.58;;;6.90;92.30;;;;;;5013297;28;20026;-69
2022/04/10 05:58:28;;;;;;;10.18;2.90;;;7.00;92.20;;;;;;5013430;28;20076;-68
2022/04/10 06:00:55;;;;;;;7.68;2.80;;;7.00;92.20;;;;;;5011680;28;20068;-68
2022/04/10 06:03:21;;;;;;;9.63;3.13;;;7.10;92.00;;;;;;5013029;28;20042;-67
2022/04/10 06:05:47;;;;;;;7.82;3.20;;;7.10;91.90;;;;;;5009915;28;20030;-68
2022/04/10 06:08:12;;;;;;;9.13;3.10;;;7.10;91.80;;;;;;5014214;28;20025;-68
2022/04/10 06:10:38;;;;;;;7.45;3.33;;;7.10;91.80;;;;;;5011748;28;20026;-68
2022/04/10 06:13:07;;;;;;;7.97;2.45;;;7.20;91.90;;;;;;5014795;28;20432;-68
2022/04/10 06:15:33;;;;;;;12.88;4.72;;;7.20;91.80;;;;;;5011873;28;20535;-68
2022/04/10 06:17:58;;;;;;;10.77;3.60;;;7.20;91.70;;;;;;5016186;28;20030;-68
2022/04/10 06:20:24;;;;;;;9.27;3.25;;;7.20;91.70;;;;;;5012918;28;20048;-68
2022/04/10 06:22:49;;;;;;;6.78;2.97;;;7.20;91.60;;;;;;5012198;28;20042;-69
2022/04/10 06:25:14;;;;;;;8.30;2.95;;;7.20;91.50;;;;;;5009919;28;20520;-69
2022/04/10 06:27:40;;;;;;;11.20;2.80;;;7.30;91.60;;;;;;5008513;28;20034;-68
2022/04/10 06:30:06;;;;;;;10.93;3.35;;;7.20;91.40;;;;;;5019092;28;20096;-69
2022/04/10 06:32:31;;;;;;;5.93;2.70;;;7.30;91.50;;;;;;5024533;28;20037;-69
2022/04/10 06:34:57;;;;;;;8.05;2.80;;;7.30;91.50;;;;;;5017689;28;20025;-68
2022/04/10 06:37:22;;;;;;;12.63;2.85;;;7.40;91.40;;;;;;5023351;28;20052;-68
2022/04/10 06:39:48;;;;;;;12.48;3.40;;;7.40;91.50;;;;;;5013691;28;20040;-68
2022/04/10 06:42:13;;;;;;;8.38;2.83;;;7.40;91.40;;;;;;5039985;28;20021;-69
2022/04/10 06:44:41;;;;;;;9.77;3.53;;;7.40;91.40;;;;;;5011255;28;20381;-69
2022/04/10 06:47:06;;;;;;;10.82;3.00;;;7.40;91.20;;;;;;5014742;28;20124;-68
2022/04/10 06:49:32;;;;;;;10.48;3.13;;;7.50;91.10;;;;;;5028448;28;20105;-69
2022/04/10 06:51:58;;;;;;;6.82;2.75;;;7.60;90.90;;;;;;5014771;28;20030;-69
2022/04/10 06:54:23;;;;;;;8.10;2.60;;;7.60;91.00;;;;;;5015223;28;20038;-69
2022/04/10 06:56:49;;;;;;;7.90;2.90;;;7.70;90.90;;;;;;5017654;28;20068;-69
2022/04/10 06:59:14;;;;;;;8.05;2.40;;;7.70;90.80;;;;;;5015954;28;20061;-69
2022/04/10 07:01:40;;;;;;;11.13;3.60;;;7.80;90.80;;;;;;5014916;28;20314;-69
2022/04/10 07:04:05;;;;;;;6.25;2.47;;;7.80;90.60;;;;;;5013637;28;20038;-69
2022/04/10 07:06:31;;;;;;;7.30;3.10;;;7.80;90.70;;;;;;5015212;28;20046;-69
2022/04/10 07:08:57;;;;;;;7.70;2.90;;;7.90;90.60;;;;;;5021849;28;20045;-69
2022/04/10 07:11:23;;;;;;;6.35;2.60;;;7.90;90.60;;;;;;5014860;28;20033;-69
2022/04/10 07:13:49;;;;;;;10.40;3.10;;;8.00;90.30;;;;;;5014232;28;20028;-69
2022/04/10 07:16:14;;;;;;;7.38;2.72;;;8.00;90.30;;;;;;5023929;28;20034;-69
2022/04/10 07:18:40;;;;;;;6.20;3.13;;;8.10;90.20;;;;;;5029528;28;20472;-69
2022/04/10 07:21:05;;;;;;;10.95;3.15;;;8.10;90.20;;;;;;5014449;28;20029;-69
2022/04/10 07:23:43;;;;;;;6.80;3.17;;;8.20;90.10;;;;;;5010905;28;20132;-69
2022/04/10 07:26:10;;;;;;;7.80;2.28;;;8.20;89.50;;;;;;5012616;28;20033;-69
2022/04/10 07:28:40;;;;;;;6.35;2.63;;;8.20;89.50;;;;;;5017431;28;20104;-69
2022/04/10 07:31:07;;;;;;;11.02;3.10;;;8.20;89.50;;;;;;5025882;28;20124;-69
2022/04/10 07:33:32;;;;;;;11.43;2.67;;;8.20;89.10;;;;;;5015417;28;20037;-69
2022/04/10 07:35:58;;;;;;;12.60;2.95;;;8.30;89.30;;;;;;5018495;28;20088;-69
2022/04/10 07:38:24;;;;;;;6.15;2.30;;;8.30;89.20;;;;;;5022078;28;20025;-69
2022/04/10 07:40:49;;;;;;;8.60;3.03;;;8.30;88.90;;;;;;5019195;28;20029;-69
2022/04/10 07:43:15;;;;;;;7.82;2.80;;;8.40;89.00;;;;;;5014420;28;20417;-69
2022/04/10 07:48:24;;;;;;;7.30;2.80;;;8.60;88.60;;;;;;5020404;28;20029;-69
2022/04/10 07:50:51;;;;;;;8.48;2.85;;;8.60;88.40;;;;;;5015063;28;20072;-70
2022/04/10 07:53:16;;;;;;;7.20;2.60;;;8.60;88.60;;;;;;5018635;28;20445;-69
2022/04/10 07:55:41;;;;;;;8.23;2.70;;;8.60;88.20;;;;;;5014918;28;20113;-68
2022/04/10 07:58:07;;;;;;;9.63;2.80;;;8.60;88.00;;;;;;5023941;28;20021;-67
2022/04/10 08:00:32;;;;;;;9.32;2.88;;;8.70;88.00;;;;;;5020731;28;20453;-68
2022/04/10 08:03:02;;;;;;;9.63;3.08;;;8.70;88.40;;;;;;5014516;28;20092;-67
2022/04/10 08:05:28;;;;;;;8.48;3.47;;;8.80;88.30;;;;;;5013680;28;20038;-68
2022/04/10 08:07:54;;;;;;;10.02;3.20;;;8.90;88.30;;;;;;5014227;28;20026;-68
2022/04/10 08:10:20;;;;;;;16.02;3.97;;;8.90;87.60;;;;;;5016567;28;20112;-66
2022/04/10 08:12:47;;;;;;;9.05;2.85;;;8.90;88.00;;;;;;5025053;28;20022;-69
2022/04/10 08:15:12;;;;;;;10.63;2.90;;;8.90;87.80;;;;;;5014494;28;20030;-68
2022/04/10 08:17:38;;;;;;;7.72;3.08;;;8.90;87.80;;;;;;5014336;28;20044;-68
2022/04/10 08:20:05;;;;;;;8.05;2.47;;;8.90;87.40;;;;;;5013673;28;20034;-68
2022/04/10 08:22:34;;;;;;;6.53;3.10;;;8.90;87.80;;;;;;5013946;28;20489;-67
2022/04/10 08:25:06;;;;;;;7.65;2.55;;;9.00;87.70;;;;;;5033308;28;20030;-68
2022/04/10 08:27:32;;;;;;;12.07;2.90;;;9.00;87.30;;;;;;5019928;28;20048;-68
2022/04/10 08:29:58;;;;;;;10.32;2.65;;;9.00;87.40;;;;;;5019433;28;20028;-69
2022/04/10 08:32:24;;;;;;;10.73;3.10;;;9.10;87.30;;;;;;5014569;28;20030;-68
2022/04/10 08:34:50;;;;;;;11.15;3.13;;;9.10;87.60;;;;;;5027260;28;20025;-68
2022/04/10 08:37:15;;;;;;;7.50;2.75;;;9.20;87.60;;;;;;5021788;28;20033;-68
2022/04/10 08:39:43;;;;;;;10.45;3.15;;;9.30;87.40;;;;;;5017275;28;20034;-69
2022/04/10 08:42:09;;;;;;;7.32;2.75;;;9.40;86.60;;;;;;5038269;28;20037;-68
2022/04/10 08:44:35;;;;;;;9.95;2.72;;;9.50;86.30;;;;;;5015971;28;20084;-68
2022/04/10 08:47:01;;;;;;;7.55;3.28;;;9.60;85.60;;;;;;5018960;28;20034;-68
2022/04/10 08:49:30;;;;;;;9.23;3.42;;;9.70;85.50;;;;;;5025882;28;20503;-68
2022/04/10 08:51:57;;;;;;;5.78;2.65;;;9.80;85.30;;;;;;5028804;28;20080;-69
2022/04/10 08:54:24;;;;;;;9.52;3.13;;;9.80;84.90;;;;;;5026800;28;20033;-68
2022/04/10 08:56:52;;;;;;;12.27;3.92;;;10.00;84.90;;;;;;5024282;28;20034;-68
2022/04/10 08:59:19;;;;;;;8.57;3.53;;;10.00;83.00;;;;;;5014434;28;20106;-68
2022/04/10 09:01:44;;;;;;;12.30;3.42;;;10.00;83.10;;;;;;5016830;28;20022;-68
2022/04/10 09:04:10;;;;;;;11.93;2.65;;;10.10;83.40;;;;;;5011717;28;20478;-69
2022/04/10 09:06:40;;;;;;;10.10;2.65;;;10.10;83.30;;;;;;5019622;28;20061;-68
2022/04/10 09:09:13;;;;;;;9.60;3.25;;;10.20;83.40;;;;;;5016275;28;20018;-68
2022/04/10 09:11:40;;;;;;;8.50;2.80;;;10.10;83.10;;;;;;5017671;28;20036;-69
2022/04/10 09:14:06;;;;;;;11.98;4.07;;;10.10;82.70;;;;;;5011279;28;20038;-67
2022/04/10 09:16:31;;;;;;;9.98;2.88;;;10.00;83.40;;;;;;5018595;28;20030;-68
2022/04/10 09:19:01;;;;;;;6.22;2.65;;;10.00;83.90;;;;;;5021843;28;20386;-68
2022/04/10 09:21:33;;;;;;;9.27;3.40;;;10.00;83.70;;;;;;5013909;28;20500;-68
2022/04/10 09:24:00;;;;;;;9.20;2.95;;;10.00;83.80;;;;;;5015108;28;20029;-68
2022/04/10 09:26:27;;;;;;;11.23;3.17;;;10.00;83.60;;;;;;5024541;28;20033;-69
2022/04/10 09:28:53;;;;;;;8.18;2.80;;;10.10;83.60;;;;;;5019706;28;20026;-69
2022/04/10 09:31:30;;;;;;;8.85;3.40;;;10.00;82.30;;;;;;5011196;28;20112;-69
2022/04/10 09:33:58;;;;;;;9.75;2.53;;;10.10;82.80;;;;;;5012580;28;20434;-69
2022/04/10 09:36:47;;;;;;;6.63;2.95;;;10.20;82.50;;;;;;5012746;28;20061;-69
2022/04/10 09:39:29;;;;;;;11.20;2.80;;;10.20;81.70;;;;;;5023930;28;20499;-69
2022/04/10 09:42:12;;;;;;;16.35;3.10;;;10.20;80.80;;;;;;5031752;28;20037;-69
2022/04/10 09:44:39;;;;;;;4.97;2.33;;;10.20;81.10;;;;;;5013557;28;20030;-69
2022/04/10 09:47:09;;;;;;;13.95;3.50;;;10.20;81.00;;;;;;5011598;28;20054;-69
2022/04/10 09:49:39;;;;;;;8.40;3.08;;;10.10;80.30;;;;;;5012812;28;20034;-69
2022/04/10 09:52:15;;;;;;;15.15;2.67;;;10.10;81.00;;;;;;5013431;28;20094;-69
2022/04/10 09:54:48;;;;;;;7.38;2.15;;;10.00;82.30;;;;;;5017777;28;20037;-68
2022/04/10 09:57:19;;;;;;;6.45;3.33;;;10.00;83.20;;;;;;5024994;28;20057;-68
2022/04/10 09:59:46;;;;;;;9.18;2.67;;;9.90;84.00;;;;;;5011353;28;20034;-68
2022/04/10 10:02:13;;;;;;;8.40;2.78;;;10.00;84.40;;;;;;5013901;28;20030;-67
2022/04/10 10:04:43;;;;;;;11.43;3.13;;;9.90;84.60;;;;;;5010879;28;20045;-68
2022/04/10 10:07:20;;;;;;;9.88;2.78;;;9.90;84.40;;;;;;5015264;28;20038;-69
2022/04/10 10:09:47;;;;;;;11.02;3.22;;;10.00;84.90;;;;;;5019415;28;20040;-68
2022/04/10 10:12:15;;;;;;;8.82;3.38;;;10.10;84.60;;;;;;5009534;28;20109;-67
2022/04/10 10:14:44;;;;;;;10.07;2.95;;;10.20;84.90;;;;;;5011658;28;20087;-68
2022/04/10 10:17:12;;;;;;;10.75;3.00;;;10.20;84.20;;;;;;5016139;28;20036;-68
2022/04/10 10:19:41;;;;;;;12.05;3.35;;;10.30;83.50;;;;;;5019427;28;20022;-68
2022/04/10 10:22:15;;;;;;;8.02;2.60;;;10.40;83.10;;;;;;5013854;28;20480;-67
2022/04/10 10:24:48;;;;;;;6.53;2.40;;;10.50;81.00;;;;;;5011287;28;20026;-69
2022/04/10 10:27:44;;;;;;;7.38;2.17;;;10.50;80.60;;;;;;5018704;28;20056;-67
2022/04/10 10:30:36;;;;;;;5.75;2.08;;;10.60;80.60;;;;;;5010694;28;20026;-67
2022/04/10 10:33:22;;;;;;;7.07;2.40;;;10.70;77.30;;;;;;5022451;28;20034;-67
2022/04/10 10:35:50;;;;;;;5.53;2.40;;;10.70;77.90;;;;;;5012368;28;20037;-68
2022/04/10 10:38:30;;;;;;;7.95;2.53;;;10.80;77.90;;;;;;5012187;28;20030;-68
2022/04/10 10:41:11;;;;;;;4.40;2.30;;;10.80;77.10;;;;;;5015195;28;20026;-68
2022/04/10 10:43:37;;;;;;;6.28;2.25;;;10.90;76.10;;;;;;5011036;28;20053;-68
2022/04/10 10:46:22;;;;;;;7.85;2.45;;;10.90;75.80;;;;;;5014639;28;20560;-69
2022/04/10 10:48:50;;;;;;;6.07;2.33;;;10.90;75.50;;;;;;5020211;28;20045;-68
2022/04/10 10:51:15;;;;;;;6.82;2.15;;;11.00;75.00;;;;;;5016416;28;20124;-68
2022/04/10 10:53:55;;;;;;;7.30;2.03;;;11.10;74.50;;;;;;5018651;28;20151;-67
2022/04/10 10:56:27;;;;;;;8.02;2.72;;;11.10;71.90;;;;;;5017208;28;20026;-67
2022/04/10 10:58:55;;;;;;;7.72;2.30;;;11.20;72.60;;;;;;5022240;28;20234;-67
2022/04/10 11:01:28;;;;;;;6.43;2.40;;;11.20;72.80;;;;;;5014935;28;20113;-67
2022/04/10 11:04:04;;;;;;;10.38;2.22;;;11.30;73.00;;;;;;5017347;28;20401;-67
2022/04/10 11:06:44;;;;;;;4.25;1.60;;;11.50;73.50;;;;;;5011139;28;20038;-67
2022/04/10 11:09:27;;;;;;;7.70;3.63;;;11.60;72.70;;;;;;5020610;28;20456;-68
2022/04/10 11:11:55;;;;;;;7.05;2.70;;;11.70;71.90;;;;;;5011111;28;20088;-67
2022/04/10 11:14:51;;;;;;;6.68;2.08;;;11.70;71.50;;;;;;5011033;28;20728;-68
2022/04/10 11:17:18;;;;;;;7.07;2.30;;;11.70;72.30;;;;;;5014530;28;20572;-68
2022/04/10 11:19:49;;;;;;;10.13;2.65;;;11.70;71.00;;;;;;5010645;28;20432;-68
2022/04/10 11:22:30;;;;;;;7.38;2.83;;;11.80;71.60;;;;;;5013480;28;20034;-68
2022/04/10 11:25:03;;;;;;;6.32;2.30;;;11.80;71.60;;;;;;5026258;28;20384;-68
2022/04/10 11:27:48;;;;;;;11.00;2.42;;;11.90;71.50;;;;;;5012107;28;20042;-66
2022/04/10 11:30:15;;;;;;;;;;;11.90;70.60;;;;;;5012400;28;20547;-67
2022/04/10 11:32:52;;;;;;;4.60;1.95;;;11.80;70.90;;;;;;5028085;28;20272;-65
2022/04/10 11:35:20;;;;;;;5.05;2.17;;;11.70;71.00;;;;;;5027180;28;20512;-66
2022/04/10 11:37:49;;;;;;;4.60;2.13;;;11.50;70.40;;;;;;5014312;28;20116;-66
2022/04/10 11:40:20;;;;;;;5.35;2.00;;;11.30;71.50;;;;;;5031074;28;20501;-67
2022/04/10 11:42:46;;;;;;;7.72;2.67;;;11.10;71.30;;;;;;5015060;28;20088;-68
2022/04/10 11:45:12;;;;;;;8.07;2.33;;;10.80;71.50;;;;;;5020074;28;20026;-67
2022/04/10 11:47:44;;;;;;;6.10;2.53;;;10.60;72.90;;;;;;5028748;28;20049;-67
2022/04/10 11:50:12;;;;;;;6.22;2.80;;;10.40;74.90;;;;;;5030657;28;20120;-67
2022/04/10 11:52:38;;;;;;;9.80;3.22;;;10.20;76.20;;;;;;5013629;28;20030;-67
2022/04/10 11:55:05;;;;;;;4.65;2.15;;;10.10;76.60;;;;;;5030251;28;20033;-66
2022/04/10 11:57:31;;;;;;;5.13;2.67;;;9.90;77.60;;;;;;5018924;28;20499;-65
2022/04/10 11:59:56;;;;;;;6.32;2.55;;;10.00;78.80;;;;;;5013611;28;20025;-66
2022/04/10 12:02:23;;;;;;;9.55;3.45;;;10.00;79.70;;;;;;5013567;28;20359;-67
2022/04/10 12:04:50;;;;;;;10.20;3.63;;;10.10;80.50;;;;;;5018508;28;20060;-65
2022/04/10 12:07:19;;;;;;;11.05;3.47;;;10.10;81.20;;;;;;5025788;28;20046;-66
2022/04/10 12:09:47;;;;;;;7.50;3.15;;;10.10;81.20;;;;;;5025757;28;20056;-67
2022/04/10 12:12:13;;;;;;;9.88;2.88;;;10.20;81.20;;;;;;5013397;28;20037;-67
2022/04/10 12:14:38;;;;;;;8.57;2.60;;;10.10;80.20;;;;;;5022433;28;20022;-67
2022/04/10 12:17:10;;;;;;;9.02;2.58;;;10.00;78.50;;;;;;5035863;28;20380;-66
2022/04/10 12:19:36;;;;;;;5.65;2.65;;;10.00;78.50;;;;;;5016208;28;20388;-65
2022/04/10 12:22:03;;;;;;;4.20;2.33;;;10.00;78.90;;;;;;5013331;28;20026;-66
2022/04/10 12:24:29;;;;;;;7.15;2.72;;;10.10;78.80;;;;;;5016320;28;20026;-66
2022/04/10 12:26:57;;;;;;;9.98;2.60;;;10.20;78.60;;;;;;5012119;28;20405;-66
2022/04/10 12:29:23;;;;;;;6.10;2.95;;;10.40;78.10;;;;;;5013510;28;20034;-66
2022/04/10 12:31:50;;;;;;;10.00;3.75;;;10.50;77.80;;;;;;5016379;28;20501;-66
2022/04/10 12:34:17;;;;;;;4.05;2.20;;;10.60;77.20;;;;;;5025286;28;20036;-66
2022/04/10 12:36:48;;;;;;;5.00;2.42;;;10.70;76.10;;;;;;5013923;28;20065;-67
2022/04/10 12:39:27;;;;;;;5.90;2.88;;;10.70;74.80;;;;;;5021967;28;20025;-66
2022/04/10 12:41:58;;;;;;;5.80;2.20;;;10.70;75.00;;;;;;5023969;28;20047;-66
2022/04/10 12:44:24;;;;;;;5.18;2.75;;;10.80;74.60;;;;;;5016020;28;20504;-68
2022/04/10 12:46:49;;;;;;;7.03;2.78;;;10.80;74.40;;;;;;5017092;28;20034;-67
2022/04/10 12:49:17;;;;;;;7.97;3.05;;;10.90;73.80;;;;;;5014980;28;20025;-67
2022/04/10 12:52:05;;;;;;;6.88;2.28;;;11.00;73.80;;;;;;5025398;28;20025;-68
2022/04/10 12:54:42;;;;;;;6.35;1.90;;;11.10;74.20;;;;;;5022884;28;20026;-68
2022/04/10 12:57:13;;;;;;;6.10;1.90;;;11.30;73.30;;;;;;5019320;28;20026;-67
2022/04/10 12:59:48;;;;;;;7.97;2.40;;;11.30;72.00;;;;;;5020886;28;20022;-67